Time;durP1;ratioP1;P1;durP2;ratioP2;P2;SDS_P1;SDS_P2;PMS_P1;PMS_P2;Temp;Humidity;BMP_temperature;BMP_pressure;BME280_temperature;BME280_humidity;BME280_pressure;Samples;Min_cycle;Max_cycle;Signal;HPM_P1;HPM_P2
2022/12/27 04:01:19;;;;;;;2.17;0.90;;;5.70;79.30;;;;;;5795677;23;20498;-73
2022/12/27 04:03:46;;;;;;;2.40;0.93;;;5.80;80.10;;;;;;5014719;28;20491;-73
2022/12/27 04:06:13;;;;;;;2.53;0.90;;;5.80;79.70;;;;;;5014849;28;20534;-73
2022/12/27 04:36:04;;;;;;;1.80;0.97;;;6.00;78.30;;;;;;5014456;28;20424;-73
2022/12/27 04:38:31;;;;;;;2.20;1.20;;;5.90;78.50;;;;;;5014324;28;20498;-73
2022/12/27 04:54:58;;;;;;;2.20;1.00;;;5.80;78.90;;;;;;5013968;28;20411;-74
2022/12/27 04:57:26;;;;;;;2.80;1.00;;;5.80;78.90;;;;;;5013967;28;20511;-73
2022/12/27 05:02:38;;;;;;;2.60;1.10;;;5.90;78.80;;;;;;5013570;28;20475;-74
2022/12/27 05:05:07;;;;;;;2.10;1.10;;;5.90;78.90;;;;;;5013870;28;20453;-74
2022/12/27 05:15:46;;;;;;;1.63;0.90;;;5.60;79.60;;;;;;5013757;28;20431;-73
2022/12/27 05:18:13;;;;;;;2.40;1.13;;;5.50;79.60;;;;;;5013700;28;20499;-74
2022/12/27 05:20:41;;;;;;;2.10;1.20;;;5.60;79.80;;;;;;5013597;28;20542;-73
2022/12/27 05:25:53;;;;;;;2.17;1.20;;;5.70;79.70;;;;;;5013401;28;20415;-73
2022/12/27 05:28:19;;;;;;;2.20;1.17;;;5.80;79.10;;;;;;5013581;28;20456;-74
2022/12/27 05:30:46;;;;;;;4.10;1.50;;;5.80;79.20;;;;;;5013009;28;20543;-73
2022/12/27 05:33:13;;;;;;;2.13;1.10;;;5.80;79.30;;;;;;5013543;28;20518;-73
2022/12/27 05:35:41;;;;;;;1.60;0.70;;;5.70;79.10;;;;;;5013912;28;20452;-74
2022/12/27 05:38:08;;;;;;;1.70;0.90;;;5.70;79.00;;;;;;5013837;28;20448;-74
2022/12/27 05:40:35;;;;;;;2.00;1.10;;;5.70;78.70;;;;;;5013038;28;20942;-73
2022/12/27 05:43:02;;;;;;;2.00;1.10;;;5.70;78.80;;;;;;5013176;28;20961;-74
2022/12/27 05:45:30;;;;;;;3.00;1.03;;;5.70;79.00;;;;;;5013896;28;20453;-74
2022/12/27 05:47:58;;;;;;;1.90;1.03;;;5.60;79.10;;;;;;5013343;28;20480;-74
2022/12/27 05:50:24;;;;;;;2.00;1.00;;;5.60;79.40;;;;;;5013298;28;20496;-74
2022/12/27 05:52:52;;;;;;;1.80;1.00;;;5.50;79.40;;;;;;5013401;28;20452;-74
2022/12/27 05:55:19;;;;;;;2.10;1.20;;;5.60;79.10;;;;;;5013331;28;20444;-74
2022/12/27 05:57:46;;;;;;;3.00;1.00;;;5.50;79.20;;;;;;5013367;28;20448;-74
2022/12/27 06:00:13;;;;;;;3.67;1.30;;;5.50;79.20;;;;;;5013143;28;20953;-73
2022/12/27 06:02:40;;;;;;;2.00;1.20;;;5.50;78.90;;;;;;5013141;28;20849;-73
2022/12/27 06:05:08;;;;;;;1.80;0.90;;;5.50;78.90;;;;;;5013250;28;20452;-73
2022/12/27 06:07:35;;;;;;;2.73;1.40;;;5.50;78.80;;;;;;5013160;28;20530;-73
2022/12/27 06:10:03;;;;;;;2.50;1.30;;;5.50;78.90;;;;;;5013152;28;20476;-73
2022/12/27 06:12:30;;;;;;;1.90;1.20;;;5.50;79.20;;;;;;5013119;28;20542;-73
2022/12/27 06:14:57;;;;;;;1.90;0.97;;;5.50;79.20;;;;;;5013112;28;20495;-74
2022/12/27 06:17:23;;;;;;;1.70;0.93;;;5.40;79.10;;;;;;5013103;28;20448;-73
2022/12/27 06:19:50;;;;;;;1.97;0.90;;;5.40;79.00;;;;;;5013130;28;20507;-73
2022/12/27 06:22:17;;;;;;;2.57;1.17;;;5.40;79.20;;;;;;5013006;28;20526;-73
2022/12/27 06:24:43;;;;;;;2.10;1.10;;;5.40;79.50;;;;;;5013075;28;20453;-73
2022/12/27 06:27:11;;;;;;;2.17;1.00;;;5.40;79.60;;;;;;5013030;28;20531;-73
2022/12/27 06:29:38;;;;;;;2.80;1.90;;;5.40;79.40;;;;;;5013013;28;20448;-73
2022/12/27 06:32:05;;;;;;;3.53;2.70;;;5.40;79.20;;;;;;5012871;28;20468;-73
2022/12/27 06:34:32;;;;;;;2.97;1.70;;;5.40;79.60;;;;;;5012669;28;20507;-73
2022/12/27 06:36:59;;;;;;;3.60;1.87;;;5.40;79.10;;;;;;5012965;28;20445;-73
2022/12/27 06:39:25;;;;;;;2.63;1.83;;;5.30;79.60;;;;;;5012935;28;20885;-73
2022/12/27 06:41:54;;;;;;;2.80;1.93;;;5.30;79.50;;;;;;5012515;28;20880;-73
2022/12/27 06:44:22;;;;;;;2.23;1.30;;;5.30;79.50;;;;;;5016462;28;20458;-74
2022/12/27 06:46:49;;;;;;;2.60;1.50;;;5.30;79.50;;;;;;5016365;28;20572;-74
2022/12/27 06:49:15;;;;;;;2.60;1.53;;;5.30;79.70;;;;;;5016107;28;21003;-74
2022/12/27 06:51:42;;;;;;;2.20;1.77;;;5.30;79.70;;;;;;5016239;28;20868;-74
2022/12/27 06:54:09;;;;;;;3.20;1.40;;;5.30;79.80;;;;;;5016259;28;20861;-74
2022/12/27 06:56:36;;;;;;;2.20;1.10;;;5.10;79.80;;;;;;5016306;28;20452;-75
2022/12/27 06:59:02;;;;;;;2.20;1.20;;;5.10;80.00;;;;;;5016147;28;20870;-74
2022/12/27 07:01:30;;;;;;;2.97;1.93;;;5.00;80.00;;;;;;5015881;28;20922;-74
2022/12/27 07:03:59;;;;;;;2.70;1.87;;;4.90;80.30;;;;;;5015773;28;20861;-74
2022/12/27 07:06:32;;;;;;;3.03;1.70;;;4.80;80.70;;;;;;5015988;28;20498;-74
2022/12/27 07:09:00;;;;;;;2.10;1.00;;;4.70;81.40;;;;;;5015982;28;20499;-74
2022/12/27 07:11:26;;;;;;;2.20;1.40;;;4.50;81.50;;;;;;5015941;28;20554;-75
2022/12/27 07:13:55;;;;;;;2.37;1.30;;;4.50;82.40;;;;;;5015922;28;20499;-74
2022/12/27 07:16:23;;;;;;;2.80;1.60;;;4.60;82.20;;;;;;5015825;28;20506;-74
2022/12/27 07:18:51;;;;;;;2.40;1.40;;;4.70;82.20;;;;;;5015834;28;20453;-74
2022/12/27 07:21:20;;;;;;;3.17;2.00;;;4.80;81.70;;;;;;5015688;28;20831;-75
2022/12/27 07:23:47;;;;;;;2.70;1.90;;;4.60;81.60;;;;;;5015667;28;20452;-74
2022/12/27 07:26:16;;;;;;;3.53;2.20;;;4.50;81.90;;;;;;5015640;28;20499;-74
2022/12/27 07:28:43;;;;;;;2.73;2.13;;;4.60;82.00;;;;;;5015576;28;20484;-74
2022/12/27 07:31:12;;;;;;;3.90;2.93;;;4.70;82.00;;;;;;5015460;28;20476;-74
2022/12/27 07:33:39;;;;;;;3.00;1.60;;;4.80;81.80;;;;;;5015226;28;20871;-75
2022/12/27 07:36:11;;;;;;;2.90;1.63;;;4.90;81.40;;;;;;5015470;28;20452;-75
2022/12/27 07:38:37;;;;;;;2.80;1.23;;;4.80;81.20;;;;;;5015510;28;20456;-75
2022/12/27 07:41:05;;;;;;;2.70;1.40;;;4.80;81.50;;;;;;5015400;28;20465;-75
2022/12/27 07:43:34;;;;;;;2.77;1.30;;;4.90;81.70;;;;;;5015107;28;20432;-75
2022/12/27 07:46:04;;;;;;;1.77;1.03;;;5.00;81.30;;;;;;5015322;28;20445;-74
2022/12/27 07:48:31;;;;;;;2.43;1.33;;;5.10;81.10;;;;;;5015181;28;20491;-74
2022/12/27 07:50:58;;;;;;;5.83;1.47;;;5.10;81.80;;;;;;5015185;28;20472;-74
2022/12/27 07:53:26;;;;;;;2.20;1.20;;;5.30;81.50;;;;;;5014695;28;20452;-74
2022/12/27 07:55:53;;;;;;;1.70;1.00;;;5.40;80.10;;;;;;5015082;28;20449;-74
2022/12/27 07:58:20;;;;;;;1.80;1.00;;;5.50;79.80;;;;;;5015101;28;20879;-74
2022/12/27 08:00:49;;;;;;;1.90;1.00;;;5.70;79.30;;;;;;5014752;28;20526;-74
2022/12/27 08:03:16;;;;;;;2.30;1.10;;;5.70;78.80;;;;;;5014956;28;20441;-75
2022/12/27 08:05:46;;;;;;;2.37;1.23;;;5.60;79.10;;;;;;5015607;28;20502;-74
2022/12/27 08:08:14;;;;;;;2.10;1.00;;;5.60;79.30;;;;;;5014896;28;20486;-74
2022/12/27 08:10:42;;;;;;;5.30;1.27;;;5.60;79.80;;;;;;5014803;28;20472;-74
2022/12/27 08:13:09;;;;;;;2.40;1.10;;;5.70;79.80;;;;;;5014436;28;20453;-75
2022/12/27 08:15:36;;;;;;;2.63;1.33;;;5.90;79.60;;;;;;5014442;28;20503;-74
2022/12/27 08:18:03;;;;;;;2.80;1.47;;;6.10;79.00;;;;;;5014739;28;20498;-75
2022/12/27 08:20:30;;;;;;;2.30;0.90;;;6.30;78.60;;;;;;5014262;28;20511;-75
2022/12/27 08:22:57;;;;;;;2.50;1.30;;;6.40;77.90;;;;;;5014590;28;20448;-73
2022/12/27 08:25:23;;;;;;;2.10;1.10;;;6.50;77.70;;;;;;5014235;28;20881;-75
2022/12/27 08:27:51;;;;;;;1.70;0.90;;;6.40;77.90;;;;;;5014198;28;20901;-74
2022/12/27 08:30:19;;;;;;;2.93;1.53;;;6.70;77.90;;;;;;5014452;28;20483;-74
2022/12/27 08:32:45;;;;;;;3.30;1.20;;;6.70;77.20;;;;;;5014493;28;20452;-75
2022/12/27 08:35:12;;;;;;;1.87;0.90;;;6.70;77.30;;;;;;5014767;28;20444;-74
2022/12/27 08:37:38;;;;;;;2.07;1.10;;;6.70;77.20;;;;;;5014346;28;20444;-74
2022/12/27 08:40:06;;;;;;;2.63;1.00;;;6.60;77.20;;;;;;5014245;28;20452;-74
2022/12/27 08:42:33;;;;;;;2.60;1.17;;;6.60;77.80;;;;;;5013922;28;20890;-75
2022/12/27 08:45:01;;;;;;;1.90;1.17;;;6.70;78.00;;;;;;5013905;28;20821;-75
2022/12/27 08:47:28;;;;;;;2.67;1.10;;;6.80;77.40;;;;;;5014280;28;20531;-75
2022/12/27 08:49:54;;;;;;;2.10;1.10;;;7.00;76.80;;;;;;5014199;28;20448;-75
2022/12/27 08:52:21;;;;;;;3.60;1.40;;;7.00;76.40;;;;;;5013670;28;20820;-75
2022/12/27 08:54:47;;;;;;;2.40;1.20;;;7.30;75.70;;;;;;5014025;28;20500;-75
2022/12/27 08:57:14;;;;;;;2.40;1.87;;;7.70;74.80;;;;;;5013961;28;20456;-74
2022/12/27 08:59:41;;;;;;;2.80;1.00;;;8.40;74.10;;;;;;5014018;28;20535;-75
2022/12/27 09:02:10;;;;;;;1.60;0.80;;;8.80;72.70;;;;;;5013515;28;20476;-75
2022/12/27 09:04:37;;;;;;;2.10;1.17;;;9.00;71.90;;;;;;5013448;28;20495;-75
2022/12/27 09:07:04;;;;;;;1.90;1.00;;;9.00;70.60;;;;;;5013458;28;20444;-75
2022/12/27 09:09:31;;;;;;;1.70;1.00;;;8.50;71.00;;;;;;5013778;28;20480;-75
2022/12/27 09:11:58;;;;;;;2.13;1.13;;;8.60;71.90;;;;;;5013398;28;20973;-74
2022/12/27 09:14:24;;;;;;;2.37;1.23;;;8.50;72.70;;;;;;5013766;28;20601;-75
2022/12/27 09:16:51;;;;;;;2.53;1.10;;;8.50;73.80;;;;;;5014162;28;20452;-75
2022/12/27 09:19:19;;;;;;;3.40;1.07;;;8.50;73.60;;;;;;5013814;28;20444;-74
2022/12/27 09:21:46;;;;;;;2.30;1.00;;;8.30;72.00;;;;;;5013679;28;20507;-75
2022/12/27 09:24:13;;;;;;;3.43;1.43;;;8.10;72.30;;;;;;5013660;28;20452;-74
2022/12/27 09:26:40;;;;;;;2.93;1.40;;;8.10;75.10;;;;;;5013330;28;20942;-74
2022/12/27 09:29:07;;;;;;;2.40;1.40;;;8.10;74.60;;;;;;5013571;28;20510;-74
2022/12/27 09:31:34;;;;;;;3.20;1.20;;;8.00;75.10;;;;;;5013495;28;20468;-74
2022/12/27 09:34:00;;;;;;;2.70;1.37;;;7.80;74.80;;;;;;5013457;28;20449;-74
2022/12/27 09:36:29;;;;;;;2.10;1.20;;;7.60;75.40;;;;;;5013348;28;20940;-73
2022/12/27 09:38:58;;;;;;;2.73;1.33;;;7.70;76.70;;;;;;5013554;28;20824;-73
2022/12/27 09:41:41;;;;;;;2.07;1.20;;;7.90;76.00;;;;;;5013501;28;20468;-73
2022/12/27 09:44:13;;;;;;;3.43;1.10;;;7.80;76.50;;;;;;5013512;28;20441;-74
2022/12/27 09:46:43;;;;;;;2.37;1.00;;;7.70;75.10;;;;;;5013464;28;20436;-74
2022/12/27 09:49:13;;;;;;;2.70;1.30;;;7.60;75.30;;;;;;5013484;28;20464;-74
2022/12/27 09:51:48;;;;;;;3.40;1.93;;;7.50;77.00;;;;;;5013268;28;20463;-75
2022/12/27 09:54:21;;;;;;;2.50;1.10;;;7.30;80.70;;;;;;5013338;28;20486;-74
2022/12/27 09:56:50;;;;;;;2.20;1.23;;;7.40;77.90;;;;;;5013355;28;20437;-74
2022/12/27 09:59:25;;;;;;;2.00;1.10;;;7.60;77.60;;;;;;5013241;28;20450;-75
2022/12/27 10:01:52;;;;;;;2.90;1.70;;;7.40;74.20;;;;;;5012978;28;20910;-74
2022/12/27 10:04:19;;;;;;;2.90;1.33;;;7.40;76.30;;;;;;5013251;28;20444;-74
2022/12/27 10:07:02;;;;;;;1.87;1.10;;;7.50;76.70;;;;;;5013159;28;20518;-74
2022/12/27 10:09:50;;;;;;;2.43;1.17;;;7.50;74.50;;;;;;5013134;28;20467;-74
2022/12/27 10:12:30;;;;;;;3.03;1.20;;;7.70;75.30;;;;;;5012992;28;20468;-74
2022/12/27 10:15:09;;;;;;;1.97;1.03;;;7.80;75.30;;;;;;5013783;28;20487;-74
2022/12/27 10:17:49;;;;;;;2.23;1.20;;;7.90;75.30;;;;;;5015775;28;20494;-75
2022/12/27 10:20:26;;;;;;;1.83;1.00;;;8.20;76.20;;;;;;5016887;28;20440;-74
2022/12/27 10:22:58;;;;;;;3.87;1.63;;;8.70;74.00;;;;;;5016843;28;20482;-75
2022/12/27 10:25:25;;;;;;;1.90;1.07;;;8.60;72.00;;;;;;5016816;28;20432;-74
2022/12/27 10:27:58;;;;;;;2.20;1.07;;;8.90;73.00;;;;;;5016361;28;20480;-74
2022/12/27 10:30:25;;;;;;;2.10;1.10;;;8.70;73.50;;;;;;5016685;28;20436;-74
2022/12/27 10:32:52;;;;;;;3.73;1.00;;;8.60;71.80;;;;;;5016353;28;20971;-74
2022/12/27 10:35:21;;;;;;;2.03;1.00;;;8.70;72.90;;;;;;5016503;28;20874;-74
2022/12/27 10:37:49;;;;;;;2.03;1.00;;;8.50;73.50;;;;;;5016154;28;20945;-75
2022/12/27 10:40:22;;;;;;;2.77;1.30;;;8.40;73.70;;;;;;5016473;28;20451;-74
2022/12/27 10:43:01;;;;;;;2.77;1.40;;;8.40;74.40;;;;;;5016486;28;20436;-74
2022/12/27 10:45:31;;;;;;;2.60;1.50;;;8.30;74.00;;;;;;5016495;28;20428;-74
2022/12/27 10:48:11;;;;;;;3.20;1.50;;;8.20;74.70;;;;;;5016364;28;20481;-75
2022/12/27 10:50:39;;;;;;;2.10;1.50;;;8.30;75.80;;;;;;5016298;28;20440;-74
2022/12/27 10:53:06;;;;;;;3.60;1.40;;;8.40;73.80;;;;;;5016268;28;20508;-74
2022/12/27 10:55:37;;;;;;;2.10;1.27;;;8.80;73.40;;;;;;5016282;28;20449;-75
2022/12/27 10:58:31;;;;;;;3.03;1.20;;;9.40;71.70;;;;;;5016185;28;20433;-75
2022/12/27 11:00:58;;;;;;;2.73;1.27;;;9.80;69.80;;;;;;5015659;28;20534;-74
2022/12/27 11:03:27;;;;;;;2.97;1.13;;;10.10;69.30;;;;;;5015795;28;20956;-75
2022/12/27 11:06:01;;;;;;;2.13;1.03;;;10.40;68.60;;;;;;5015766;28;20452;-75
2022/12/27 11:08:29;;;;;;;2.00;1.07;;;9.50;68.50;;;;;;5015868;28;20609;-74
2022/12/27 11:11:19;;;;;;;1.70;0.90;;;9.30;70.10;;;;;;5015643;28;20912;-74
2022/12/27 11:13:46;;;;;;;2.13;1.10;;;9.30;71.00;;;;;;5015978;28;20490;-74
2022/12/27 11:16:29;;;;;;;1.70;0.90;;;9.30;70.40;;;;;;5016016;28;20451;-73
2022/12/27 11:18:58;;;;;;;2.30;1.10;;;9.20;72.50;;;;;;5014039;28;20503;-74
2022/12/27 11:21:26;;;;;;;2.80;1.00;;;9.20;71.20;;;;;;5015667;28;20888;-74
2022/12/27 11:23:55;;;;;;;2.13;1.20;;;9.00;70.60;;;;;;5015811;28;20557;-74
2022/12/27 11:26:27;;;;;;;2.40;1.00;;;8.80;71.50;;;;;;5015679;28;20444;-74
2022/12/27 11:28:56;;;;;;;1.70;1.07;;;8.70;70.10;;;;;;5014652;28;20893;-75
2022/12/27 11:31:35;;;;;;;2.13;0.97;;;8.70;71.00;;;;;;5015564;28;20468;-73
2022/12/27 11:34:07;;;;;;;2.20;1.10;;;8.60;70.90;;;;;;5015664;28;20451;-74
2022/12/27 11:36:37;;;;;;;2.93;1.20;;;8.70;71.70;;;;;;5015568;28;20433;-74
2022/12/27 11:39:04;;;;;;;2.20;1.40;;;8.70;69.80;;;;;;5015449;28;20452;-74
2022/12/27 11:41:39;;;;;;;3.73;1.00;;;8.60;70.70;;;;;;5015413;28;20472;-74
2022/12/27 11:44:14;;;;;;;1.80;0.83;;;8.70;69.90;;;;;;5015217;28;20449;-74
2022/12/27 11:46:45;;;;;;;1.50;0.70;;;8.60;71.40;;;;;;5015312;28;20428;-74
2022/12/27 11:49:19;;;;;;;2.00;1.00;;;8.70;70.70;;;;;;5015203;28;20465;-74
2022/12/27 11:52:07;;;;;;;2.63;1.00;;;8.80;72.40;;;;;;5015194;28;20468;-74
2022/12/27 11:54:52;;;;;;;2.13;1.23;;;8.80;71.90;;;;;;5015152;28;20490;-74
2022/12/27 11:57:30;;;;;;;1.70;0.97;;;8.90;71.60;;;;;;5015141;28;20433;-73
2022/12/27 12:00:06;;;;;;;2.90;1.20;;;8.80;72.40;;;;;;5015159;28;20499;-74
2022/12/27 12:02:45;;;;;;;2.90;1.47;;;8.80;72.20;;;;;;5014878;28;20476;-75
2022/12/27 12:05:45;;;;;;;2.73;1.40;;;9.00;72.70;;;;;;5015002;28;20432;-76
2022/12/27 12:08:50;;;;;;;2.10;1.30;;;9.30;70.10;;;;;;5014522;28;20984;-75
2022/12/27 12:11:29;;;;;;;3.20;1.80;;;9.60;69.50;;;;;;5014615;28;20472;-75
2022/12/27 12:14:24;;;;;;;2.13;1.10;;;10.10;68.50;;;;;;5014879;28;20495;-75
2022/12/27 12:17:04;;;;;;;3.23;1.90;;;10.60;68.00;;;;;;4986021;28;21000;-74
2022/12/27 12:19:43;;;;;;;2.63;1.30;;;10.70;66.20;;;;;;5014630;28;20507;-74
2022/12/27 12:22:29;;;;;;;2.30;1.30;;;11.00;67.90;;;;;;5014317;28;20889;-74
2022/12/27 12:25:15;;;;;;;2.37;1.40;;;11.20;66.40;;;;;;5014585;28;20435;-75
2022/12/27 12:27:56;;;;;;;2.43;1.47;;;12.10;63.70;;;;;;5014747;28;20784;-75
2022/12/27 12:30:48;;;;;;;2.23;1.20;;;13.20;60.60;;;;;;5013910;28;20484;-74
2022/12/27 12:33:36;;;;;;;1.80;1.17;;;15.10;57.30;;;;;;5014196;28;20864;-74
2022/12/27 12:36:30;;;;;;;2.50;1.50;;;17.10;54.30;;;;;;5014482;28;20428;-75
2022/12/27 12:39:02;;;;;;;1.73;1.00;;;18.60;50.10;;;;;;5014121;28;20441;-75
2022/12/27 12:41:51;;;;;;;2.13;1.40;;;19.70;47.00;;;;;;5013476;28;20531;-75
2022/12/27 12:44:46;;;;;;;2.10;1.10;;;20.30;45.40;;;;;;5014007;28;20486;-74
2022/12/27 12:47:34;;;;;;;2.40;1.20;;;20.50;45.50;;;;;;5014297;28;20429;-74
2022/12/27 12:50:24;;;;;;;2.23;1.23;;;21.60;44.20;;;;;;5014265;28;20519;-75
2022/12/27 12:53:13;;;;;;;2.63;1.30;;;20.50;43.70;;;;;;5014128;28;20487;-74
2022/12/27 12:55:50;;;;;;;2.00;1.03;;;20.10;45.20;;;;;;5014223;28;20436;-75
2022/12/27 12:58:34;;;;;;;1.87;1.03;;;20.30;45.60;;;;;;5014147;28;20424;-75
2022/12/27 13:01:34;;;;;;;3.73;1.47;;;20.10;45.10;;;;;;5014056;28;20488;-75
2022/12/27 13:04:31;;;;;;;3.27;1.93;;;19.30;45.80;;;;;;4998799;28;20552;-75
2022/12/27 13:07:24;;;;;;;2.10;1.00;;;18.90;46.50;;;;;;5014501;28;20487;-75
2022/12/27 13:10:16;;;;;;;2.13;1.00;;;19.30;46.00;;;;;;5014062;28;20461;-76
2022/12/27 13:12:49;;;;;;;3.53;1.23;;;20.40;45.80;;;;;;5013757;28;20460;-75
2022/12/27 13:15:31;;;;;;;2.30;1.23;;;20.20;45.60;;;;;;5014247;28;20520;-75
2022/12/27 13:18:07;;;;;;;2.97;1.20;;;20.60;45.20;;;;;;5013765;28;20926;-76
2022/12/27 13:21:00;;;;;;;2.37;1.00;;;20.60;44.40;;;;;;5013731;28;20440;-75
2022/12/27 13:23:41;;;;;;;3.83;1.40;;;20.50;43.00;;;;;;5013803;28;20519;-75
2022/12/27 13:26:17;;;;;;;2.50;1.10;;;20.50;44.80;;;;;;5013828;28;20441;-76
2022/12/27 13:28:58;;;;;;;4.73;1.17;;;21.30;43.00;;;;;;5013728;28;20472;-75
2022/12/27 13:31:35;;;;;;;2.13;1.20;;;20.40;43.40;;;;;;5013583;28;20472;-75
2022/12/27 13:34:19;;;;;;;2.00;1.00;;;20.80;43.30;;;;;;5013936;28;20519;-76
2022/12/27 13:37:08;;;;;;;2.30;1.03;;;21.20;43.50;;;;;;5014179;28;20437;-76
2022/12/27 13:39:46;;;;;;;1.70;0.90;;;21.60;42.20;;;;;;5013912;28;20420;-75
2022/12/27 13:42:47;;;;;;;2.33;1.37;;;22.00;40.60;;;;;;5013860;28;20526;-76
2022/12/27 13:45:45;;;;;;;2.20;1.00;;;22.20;40.20;;;;;;4934284;29;20454;-75
2022/12/27 13:48:33;;;;;;;2.10;1.30;;;22.10;40.50;;;;;;5013765;28;20472;-74
2022/12/27 13:51:12;;;;;;;2.27;1.30;;;22.30;39.70;;;;;;5013872;28;20495;-76
2022/12/27 13:54:05;;;;;;;2.53;1.13;;;20.50;41.10;;;;;;5017886;28;20483;-76
2022/12/27 13:56:39;;;;;;;2.27;1.30;;;19.40;44.10;;;;;;5017846;28;20972;-77
2022/12/27 13:59:41;;;;;;;1.97;0.80;;;19.00;44.00;;;;;;5018025;28;20428;-77
2022/12/27 14:02:38;;;;;;;2.23;0.80;;;19.10;44.40;;;;;;5017346;28;20538;-76
2022/12/27 14:05:37;;;;;;;2.80;1.20;;;18.80;45.80;;;;;;5017451;28;20511;-76
2022/12/27 14:08:15;;;;;;;3.40;0.93;;;18.20;46.40;;;;;;5017937;28;20425;-76
2022/12/27 14:10:46;;;;;;;2.50;1.13;;;18.70;45.50;;;;;;5017652;28;20538;-76
2022/12/27 14:13:16;;;;;;;1.90;0.90;;;18.70;45.40;;;;;;5017321;28;20428;-75
2022/12/27 14:16:20;;;;;;;2.20;1.00;;;18.30;46.50;;;;;;5017765;28;20510;-74
2022/12/27 14:19:01;;;;;;;2.47;1.03;;;17.60;47.00;;;;;;5017622;28;20863;-75
2022/12/27 14:22:01;;;;;;;2.30;1.00;;;16.80;48.40;;;;;;5017281;28;20857;-76
2022/12/27 14:25:01;;;;;;;1.90;0.90;;;15.80;50.40;;;;;;5017536;28;20433;-76
2022/12/27 14:28:20;;;;;;;2.37;0.90;;;15.00;52.10;;;;;;5015067;28;20448;-75
2022/12/27 14:31:10;;;;;;;2.10;1.20;;;13.90;53.50;;;;;;5017634;28;20911;-76
2022/12/27 14:34:01;;;;;;;2.00;1.00;;;13.40;55.90;;;;;;5017692;28;20495;-76
2022/12/27 14:36:55;;;;;;;2.93;1.10;;;12.70;57.10;;;;;;5017675;28;20579;-76
2022/12/27 14:40:07;;;;;;;1.87;0.93;;;12.40;58.30;;;;;;5017947;28;20428;-76
2022/12/27 14:43:05;;;;;;;4.13;1.10;;;11.90;59.80;;;;;;5017160;28;20464;-75
2022/12/27 14:45:57;;;;;;;2.07;1.10;;;11.50;61.30;;;;;;5016839;28;20425;-76
2022/12/27 14:48:53;;;;;;;3.40;1.00;;;11.30;61.50;;;;;;5016516;28;20794;-76
2022/12/27 14:51:55;;;;;;;2.67;1.00;;;11.00;61.70;;;;;;5017376;28;20473;-76
2022/12/27 14:54:53;;;;;;;2.00;1.10;;;10.90;61.60;;;;;;5016935;28;20499;-76
2022/12/27 14:57:30;;;;;;;1.80;1.00;;;10.70;62.30;;;;;;5017809;28;20875;-76
2022/12/27 15:00:04;;;;;;;2.90;1.00;;;10.40;63.00;;;;;;5017310;28;20447;-76
2022/12/27 15:02:48;;;;;;;2.33;0.90;;;10.20;63.40;;;;;;5015812;28;20480;-76
2022/12/27 15:05:28;;;;;;;2.90;1.00;;;10.00;64.10;;;;;;5016170;28;20436;-76
2022/12/27 15:08:23;;;;;;;2.70;1.20;;;10.00;64.20;;;;;;5016512;28;20432;-76
2022/12/27 15:11:01;;;;;;;2.50;1.40;;;10.00;64.50;;;;;;5016262;28;20484;-75
2022/12/27 15:13:43;;;;;;;2.40;1.00;;;9.90;64.60;;;;;;5016356;28;20440;-75
2022/12/27 15:16:15;;;;;;;2.00;1.07;;;9.70;64.90;;;;;;5015934;28;20878;-75
2022/12/27 15:19:00;;;;;;;1.93;1.00;;;9.60;65.50;;;;;;5016157;28;20978;-75
2022/12/27 15:21:47;;;;;;;3.73;2.80;;;9.50;65.70;;;;;;5016392;28;20472;-76
2022/12/27 15:24:25;;;;;;;3.00;1.10;;;9.40;65.90;;;;;;5016126;28;20843;-76
2022/12/27 15:26:58;;;;;;;2.20;1.07;;;9.30;65.90;;;;;;5016338;28;20495;-76
2022/12/27 15:29:42;;;;;;;1.80;0.80;;;9.20;65.90;;;;;;5016623;28;20469;-76
2022/12/27 15:32:23;;;;;;;2.57;0.93;;;9.00;66.10;;;;;;5016236;28;20905;-76
2022/12/27 15:35:10;;;;;;;1.80;1.03;;;8.90;67.10;;;;;;5016412;28;20463;-75
2022/12/27 15:38:00;;;;;;;2.10;1.00;;;9.00;67.70;;;;;;5015934;28;20917;-76
2022/12/27 15:40:48;;;;;;;2.43;0.90;;;9.00;68.00;;;;;;5016933;28;20480;-76
2022/12/27 15:43:46;;;;;;;4.07;1.27;;;8.90;68.70;;;;;;5015829;28;20953;-76
2022/12/27 15:46:28;;;;;;;11.20;1.77;;;8.90;69.00;;;;;;5009336;28;20480;-76
2022/12/27 15:49:13;;;;;;;3.00;1.80;;;8.90;68.90;;;;;;5016043;28;20439;-76
2022/12/27 15:51:49;;;;;;;5.03;1.90;;;8.90;69.20;;;;;;5015824;28;20456;-75
2022/12/27 15:54:32;;;;;;;2.93;1.30;;;8.90;69.20;;;;;;5016079;28;20490;-76
2022/12/27 15:57:30;;;;;;;4.17;1.87;;;8.80;69.20;;;;;;5015922;28;20479;-76
2022/12/27 16:00:14;;;;;;;2.90;1.90;;;8.60;70.10;;;;;;5008912;28;20499;-76
2022/12/27 16:02:51;;;;;;;4.90;4.33;;;8.60;70.60;;;;;;5015325;28;20534;-75
2022/12/27 16:05:42;;;;;;;9.43;7.03;;;8.20;72.20;;;;;;5015072;28;20436;-75
2022/12/27 16:08:26;;;;;;;5.93;4.60;;;8.30;71.80;;;;;;5015028;28;20869;-75
2022/12/27 16:10:54;;;;;;;5.80;4.83;;;8.40;71.60;;;;;;5015157;28;20488;-77
2022/12/27 16:13:36;;;;;;;8.90;6.70;;;8.40;71.80;;;;;;5014881;28;20448;-76
2022/12/27 16:16:04;;;;;;;9.47;7.37;;;8.40;71.90;;;;;;5015125;28;20882;-75
2022/12/27 16:18:55;;;;;;;8.90;6.80;;;8.30;72.20;;;;;;5014652;28;20463;-76
2022/12/27 16:21:23;;;;;;;8.50;6.53;;;8.40;72.20;;;;;;5014562;28;20464;-76
2022/12/27 16:23:54;;;;;;;6.00;5.27;;;8.40;72.40;;;;;;5014705;28;20510;-75
2022/12/27 16:26:25;;;;;;;7.43;4.93;;;8.30;72.40;;;;;;5014602;28;20433;-76
2022/12/27 16:28:56;;;;;;;6.77;4.20;;;8.30;72.60;;;;;;5014568;28;20556;-76
2022/12/27 16:31:25;;;;;;;4.40;3.20;;;8.30;72.90;;;;;;5014326;28;20492;-76
2022/12/27 16:33:53;;;;;;;5.17;3.63;;;8.30;73.00;;;;;;5014471;28;20448;-76
2022/12/27 16:36:26;;;;;;;4.87;2.80;;;8.20;73.10;;;;;;5014391;28;20502;-75
2022/12/27 16:39:21;;;;;;;5.63;2.90;;;8.20;73.40;;;;;;5014360;28;20506;-76
2022/12/27 16:42:06;;;;;;;6.23;3.97;;;8.20;73.30;;;;;;5014314;28;20878;-76
2022/12/27 16:44:52;;;;;;;6.27;5.13;;;8.10;73.30;;;;;;5014597;28;20877;-75
2022/12/27 16:47:48;;;;;;;5.40;4.80;;;8.10;73.60;;;;;;5014445;28;20521;-75
2022/12/27 16:50:35;;;;;;;8.30;6.47;;;8.00;74.00;;;;;;5011122;28;20554;-75
2022/12/27 16:53:14;;;;;;;7.20;6.20;;;8.00;74.00;;;;;;5014180;28;20444;-76
2022/12/27 16:56:13;;;;;;;8.83;7.00;;;7.90;74.10;;;;;;5014301;28;20433;-75
2022/12/27 16:58:40;;;;;;;9.73;7.10;;;7.80;74.60;;;;;;5014182;28;20444;-75
2022/12/27 17:01:27;;;;;;;13.13;10.10;;;7.80;74.50;;;;;;5013696;28;20476;-75
2022/12/27 17:03:55;;;;;;;14.83;11.53;;;7.80;74.50;;;;;;5013638;28;20798;-75
2022/12/27 17:06:54;;;;;;;20.40;14.13;;;7.80;74.70;;;;;;5013962;28;20503;-75
2022/12/27 17:09:42;;;;;;;17.20;12.60;;;7.70;74.60;;;;;;5013905;28;20514;-75
2022/12/27 17:12:24;;;;;;;19.57;12.70;;;7.70;74.70;;;;;;5013881;28;20475;-75
2022/12/27 17:14:57;;;;;;;15.00;12.30;;;7.60;75.00;;;;;;5013891;28;20483;-76
2022/12/27 17:17:25;;;;;;;12.77;11.17;;;7.60;75.20;;;;;;5013800;28;20863;-76
2022/12/27 17:19:58;;;;;;;10.30;9.20;;;7.60;75.40;;;;;;5013729;28;20448;-76
2022/12/27 17:22:26;;;;;;;8.07;7.27;;;7.50;75.60;;;;;;5013670;28;20518;-76
2022/12/27 17:24:57;;;;;;;8.07;7.00;;;7.50;75.70;;;;;;5013400;28;20926;-76
2022/12/27 17:28:00;;;;;;;5.73;5.20;;;7.50;75.70;;;;;;5013108;28;20503;-76
2022/12/27 17:30:38;;;;;;;6.43;3.80;;;7.40;75.70;;;;;;5006861;28;20488;-76
2022/12/27 17:33:30;;;;;;;4.13;3.67;;;7.40;75.40;;;;;;5013598;28;20432;-75
2022/12/27 17:36:25;;;;;;;3.90;2.97;;;7.30;75.70;;;;;;5013228;28;20906;-76
2022/12/27 17:39:04;;;;;;;3.33;2.47;;;7.20;75.60;;;;;;5013211;28;20991;-76
2022/12/27 17:44:42;;;;;;;3.87;3.47;;;7.10;76.00;;;;;;5013480;28;20487;-74
2022/12/27 17:47:35;;;;;;;3.87;2.10;;;7.10;76.10;;;;;;5013584;28;20432;-72
2022/12/27 17:50:12;;;;;;;4.10;3.27;;;7.00;76.20;;;;;;5013523;28;20507;-75
2022/12/27 17:58:10;;;;;;;3.37;1.83;;;6.80;76.50;;;;;;5013654;28;20884;-74
2022/12/27 18:00:42;;;;;;;2.80;1.97;;;6.80;76.40;;;;;;5013734;28;20531;-72
2022/12/27 18:03:13;;;;;;;2.73;1.90;;;6.80;76.30;;;;;;5013220;28;20435;-70
2022/12/27 18:05:42;;;;;;;3.23;2.00;;;6.80;76.20;;;;;;5014077;28;20490;-74
2022/12/27 18:08:20;;;;;;;3.27;2.20;;;6.80;76.30;;;;;;5013303;28;20473;-74
2022/12/27 18:10:47;;;;;;;4.40;2.20;;;6.80;76.30;;;;;;5013128;28;20492;-74
2022/12/27 18:13:18;;;;;;;3.40;2.33;;;6.80;76.30;;;;;;5013216;28;20448;-74
2022/12/27 18:15:48;;;;;;;6.30;3.20;;;6.70;76.30;;;;;;5013174;28;20420;-72
2022/12/27 18:18:19;;;;;;;2.90;2.60;;;6.70;76.30;;;;;;5013192;28;20437;-73
2022/12/27 18:20:46;;;;;;;5.40;4.23;;;6.70;76.00;;;;;;5012784;28;21039;-74
2022/12/27 18:23:18;;;;;;;5.50;5.00;;;6.70;75.80;;;;;;5012801;28;20865;-75
2022/12/27 18:25:57;;;;;;;5.40;4.90;;;6.60;75.70;;;;;;5013195;28;20456;-75
2022/12/27 18:28:25;;;;;;;4.90;3.20;;;6.60;76.10;;;;;;5013201;28;20483;-75
2022/12/27 18:31:00;;;;;;;4.83;3.50;;;6.60;76.20;;;;;;5012865;28;20492;-74
2022/12/27 18:33:32;;;;;;;3.63;3.33;;;6.50;76.40;;;;;;5013076;28;20444;-75
2022/12/27 18:36:01;;;;;;;4.80;3.90;;;6.50;76.50;;;;;;5012798;28;20964;-76
2022/12/27 18:38:33;;;;;;;8.83;5.00;;;6.50;76.70;;;;;;5015361;28;20456;-75
2022/12/27 18:41:06;;;;;;;6.10;4.70;;;6.40;76.70;;;;;;5016674;28;20464;-75
2022/12/27 18:43:34;;;;;;;7.60;4.73;;;6.40;76.80;;;;;;5016597;28;20452;-75